Airfield :
LOGIN :

Register | Disclaimer

   EN    FR    IT 

 










Legend :    VFR   Marginal VFR   IFR   Intensive IFR   Very Intensive IFR
Visi :
Ceiling :
>= 8 km
>= 3000ft
5 to 8 km
1000 to 3000 ft
1500m to 5 km
500 to 1000 ft
800 to 1500m
200 to 500 ft
< 800m
< 200 ft
Symbols :   Thunderstorms  Fog  Heavy snow  Heavy precipitations  Wind > 20 kt
SIGMETs :     Misc.  Thunderstorms  Icing  Turbulence  Mountain Waves  Volcanic Ashes







- Airport Elevation : 154 ft
- IATA code : SZZ


EPSC - Szczecin Goleniow

CURRENT METAR :
  • 152300Z 12006KT 4000 BR NSC M00/M01 Q1029

EXPIRED METARs :
  • 152230Z 12005KT 0800 R31/1000D FZFG NSC M01/M01 Q1030
  • 152200Z 12004KT 1500 BR NSC 00/M01 Q1029
  • 152130Z 12005KT 4000 BR NSC 02/01 Q1030
  • 152100Z 13005KT 2500 BR NSC 01/00 Q1030
  • 152030Z 12005KT 4000 BR NSC 01/01 Q1030

TAF TAF EPSC
Valid from the 15 at 18:00 until the 16 at 18:00 UTC


151730Z 1518/1618 17004KT CAVOK
BECMG 1518/1521 3000 BR
TEMPO 1518/1608 1400 BR BKN003
PROB40 1518/1607 0400 FG OVC001
BECMG 1606/1609 23010KT CAVOK
No reported NOTAMs for that airfield.



MET'MAP, your aeronautical weather chart ! - Copyright ORBIFLY December 2007 - Disclaimer

ORBIFLY MET'MAP TEAM :

Programming & Development : Alexandra Zaïnal
Concept & Development : Baudouin d'Aumeries
Co-Development & Prog : Marc-Olivier Méhu
Technical & hardware support : Manuel Goepfert

Contact : metmap@orbifly.com




SOURCES & CREDITS :

   NOAA